KMNH

Monument Pass Airport

Monument Pass, Colorado, USA
METAR KMNH 161024Z AUTO 22007KT 10SM CLR 00/M12 A3032 RMK AO2
Observed Flight Rules
Dec-16 @ 10:24 UTC (29 minutes ago) Visual Flight Rules
Wind Visibility Clouds
220° at 7 knots 10 miles
  • Clear skies
Temperatures Readings
Current 0°C / 32°F
Dewpoint -12°C / 10°F
Humidity 40%
Altimeter 30.32" Hg
Pressure 1027 hPa
Elevation 2152
METAR KMNH 161024Z AUTO 22007KT 10SM CLR 00/M12 A3032 RMK AO2
Observed Flight Rules
Dec-16 @ 10:24 UTC
(29 minutes ago)
VFR
Wind Visibility
220° at 7 knots 10 miles
Clouds
  • Clear skies
Temperature Dewpoint
0°C / 32°F -12°C / 10°F
Humidity Altimeter Pressure
40% 30.32" Hg 1027 hPa